sensor_id;sensor_type;location;lat;lon;timestamp;pressure;altitude;pressure_sealevel;temperature;humidity
14882;BME280;7533;51.278;12.588;2023-06-26T00:04:00;100116.59;;;28.34;58.67
14882;BME280;7533;51.278;12.588;2023-06-26T00:09:03;100115.13;;;28.30;58.37
14882;BME280;7533;51.278;12.588;2023-06-26T00:14:07;100117.97;;;28.11;59.02
14882;BME280;7533;51.278;12.588;2023-06-26T00:19:10;100122.78;;;27.99;58.94
14882;BME280;7533;51.278;12.588;2023-06-26T00:24:13;100115.91;;;27.77;59.27
14882;BME280;7533;51.278;12.588;2023-06-26T00:29:18;100115.38;;;27.64;59.95
14882;BME280;7533;51.278;12.588;2023-06-26T00:34:20;100113.97;;;27.60;59.92
14882;BME280;7533;51.278;12.588;2023-06-26T00:39:24;100114.06;;;27.40;60.47
14882;BME280;7533;51.278;12.588;2023-06-26T00:44:29;100108.91;;;27.37;60.16
14882;BME280;7533;51.278;12.588;2023-06-26T00:49:32;100117.47;;;26.96;61.28
14882;BME280;7533;51.278;12.588;2023-06-26T00:54:34;100109.47;;;26.84;61.32
14882;BME280;7533;51.278;12.588;2023-06-26T00:59:39;100106.44;;;26.87;61.06
14882;BME280;7533;51.278;12.588;2023-06-26T01:04:44;100104.75;;;26.86;61.24
14882;BME280;7533;51.278;12.588;2023-06-26T01:09:48;100094.03;;;26.75;61.30
14882;BME280;7533;51.278;12.588;2023-06-26T01:14:53;100095.47;;;26.70;61.49
14882;BME280;7533;51.278;12.588;2023-06-26T01:19:58;100089.78;;;26.53;61.40
14882;BME280;7533;51.278;12.588;2023-06-26T01:25:13;100084.63;;;26.41;61.72
14882;BME280;7533;51.278;12.588;2023-06-26T01:30:21;100089.59;;;26.26;62.62
14882;BME280;7533;51.278;12.588;2023-06-26T01:35:24;100079.22;;;26.21;62.29
14882;BME280;7533;51.278;12.588;2023-06-26T01:40:27;100079.47;;;26.08;62.90
14882;BME280;7533;51.278;12.588;2023-06-26T01:45:32;100069.34;;;26.10;62.30
14882;BME280;7533;51.278;12.588;2023-06-26T01:50:37;100068.03;;;26.15;62.42
14882;BME280;7533;51.278;12.588;2023-06-26T01:55:47;100057.47;;;26.41;61.36
14882;BME280;7533;51.278;12.588;2023-06-26T02:00:55;100049.06;;;26.34;61.93
14882;BME280;7533;51.278;12.588;2023-06-26T02:05:57;100054.06;;;26.38;61.76
14882;BME280;7533;51.278;12.588;2023-06-26T02:11:01;100042.47;;;26.66;60.93
14882;BME280;7533;51.278;12.588;2023-06-26T02:16:06;100048.16;;;26.82;60.82
14882;BME280;7533;51.278;12.588;2023-06-26T02:21:09;100050.31;;;26.78;60.09
14882;BME280;7533;51.278;12.588;2023-06-26T02:26:12;100050.91;;;26.62;60.44
14882;BME280;7533;51.278;12.588;2023-06-26T02:31:18;100050.06;;;26.33;61.34
14882;BME280;7533;51.278;12.588;2023-06-26T02:36:21;100043.94;;;26.50;61.04
14882;BME280;7533;51.278;12.588;2023-06-26T02:41:23;100048.38;;;26.51;60.88
14882;BME280;7533;51.278;12.588;2023-06-26T02:46:28;100046.50;;;26.32;60.96
14882;BME280;7533;51.278;12.588;2023-06-26T02:51:31;100042.72;;;25.75;62.43
14882;BME280;7533;51.278;12.588;2023-06-26T02:56:38;100048.34;;;25.53;62.86
14882;BME280;7533;51.278;12.588;2023-06-26T03:01:51;100048.09;;;25.56;63.43
14882;BME280;7533;51.278;12.588;2023-06-26T03:06:57;100051.53;;;25.18;64.03
14882;BME280;7533;51.278;12.588;2023-06-26T03:12:00;100049.38;;;25.12;64.30
14882;BME280;7533;51.278;12.588;2023-06-26T03:17:04;100039.94;;;25.06;63.64
14882;BME280;7533;51.278;12.588;2023-06-26T03:22:09;100037.53;;;25.13;64.05
14882;BME280;7533;51.278;12.588;2023-06-26T03:27:12;100038.06;;;25.06;63.99
14882;BME280;7533;51.278;12.588;2023-06-26T03:32:20;100037.75;;;24.79;65.23
14882;BME280;7533;51.278;12.588;2023-06-26T03:37:23;100045.09;;;24.67;65.45
14882;BME280;7533;51.278;12.588;2023-06-26T03:42:26;100031.25;;;24.61;65.20
14882;BME280;7533;51.278;12.588;2023-06-26T03:47:31;100027.22;;;24.76;66.06
14882;BME280;7533;51.278;12.588;2023-06-26T03:52:34;100028.63;;;25.01;64.73
14882;BME280;7533;51.278;12.588;2023-06-26T03:57:37;100024.84;;;25.13;64.05
14882;BME280;7533;51.278;12.588;2023-06-26T04:02:41;100018.75;;;25.21;64.10
14882;BME280;7533;51.278;12.588;2023-06-26T04:07:49;100021.06;;;25.25;64.05
14882;BME280;7533;51.278;12.588;2023-06-26T04:12:53;100021.47;;;25.30;64.04
14882;BME280;7533;51.278;12.588;2023-06-26T04:17:57;100021.06;;;25.35;63.77
14882;BME280;7533;51.278;12.588;2023-06-26T04:23:00;100011.84;;;25.38;63.71
14882;BME280;7533;51.278;12.588;2023-06-26T04:28:03;100020.66;;;25.40;63.86
14882;BME280;7533;51.278;12.588;2023-06-26T04:33:07;100019.97;;;25.38;64.30
14882;BME280;7533;51.278;12.588;2023-06-26T04:38:13;100006.97;;;25.41;64.04
14882;BME280;7533;51.278;12.588;2023-06-26T04:43:16;100012.97;;;25.45;64.62
14882;BME280;7533;51.278;12.588;2023-06-26T04:48:21;100003.59;;;25.49;64.21
14882;BME280;7533;51.278;12.588;2023-06-26T04:53:24;100002.44;;;25.51;64.53
14882;BME280;7533;51.278;12.588;2023-06-26T04:58:27;100001.16;;;25.55;64.45
14882;BME280;7533;51.278;12.588;2023-06-26T05:03:31;99994.19;;;25.63;64.69
14882;BME280;7533;51.278;12.588;2023-06-26T05:08:34;99989.06;;;25.69;64.50
14882;BME280;7533;51.278;12.588;2023-06-26T05:13:37;99986.69;;;25.76;64.58
14882;BME280;7533;51.278;12.588;2023-06-26T05:18:42;99980.69;;;25.82;64.23
14882;BME280;7533;51.278;12.588;2023-06-26T05:23:45;99973.28;;;25.84;64.86
14882;BME280;7533;51.278;12.588;2023-06-26T05:28:49;99964.72;;;25.89;64.58
14882;BME280;7533;51.278;12.588;2023-06-26T05:33:55;99963.13;;;25.96;64.14
14882;BME280;7533;51.278;12.588;2023-06-26T05:39:01;99959.41;;;25.97;64.33
14882;BME280;7533;51.278;12.588;2023-06-26T05:44:05;99958.84;;;26.03;64.20
14882;BME280;7533;51.278;12.588;2023-06-26T05:49:09;99956.00;;;26.04;64.43
14882;BME280;7533;51.278;12.588;2023-06-26T05:54:16;99960.56;;;26.04;64.27
14882;BME280;7533;51.278;12.588;2023-06-26T05:59:19;99953.28;;;26.04;64.56
14882;BME280;7533;51.278;12.588;2023-06-26T06:04:23;99948.28;;;26.09;64.37
14882;BME280;7533;51.278;12.588;2023-06-26T06:09:26;99956.97;;;26.13;64.15
14882;BME280;7533;51.278;12.588;2023-06-26T06:14:29;99950.44;;;26.06;64.11
14882;BME280;7533;51.278;12.588;2023-06-26T06:19:33;99949.41;;;26.17;63.91
14882;BME280;7533;51.278;12.588;2023-06-26T06:24:36;99949.09;;;26.20;63.40
14882;BME280;7533;51.278;12.588;2023-06-26T06:29:39;99951.53;;;26.32;62.69
14882;BME280;7533;51.278;12.588;2023-06-26T06:34:43;99950.09;;;26.38;62.39
14882;BME280;7533;51.278;12.588;2023-06-26T06:39:46;99949.06;;;26.49;62.60
14882;BME280;7533;51.278;12.588;2023-06-26T06:44:49;99945.50;;;26.48;63.07
14882;BME280;7533;51.278;12.588;2023-06-26T06:49:53;99942.50;;;26.61;62.72
14882;BME280;7533;51.278;12.588;2023-06-26T06:54:57;99939.19;;;26.67;62.89
14882;BME280;7533;51.278;12.588;2023-06-26T07:00:02;99936.72;;;26.74;62.93
14882;BME280;7533;51.278;12.588;2023-06-26T07:05:07;99923.09;;;26.83;62.64
14882;BME280;7533;51.278;12.588;2023-06-26T07:10:13;99918.31;;;26.95;62.43
14882;BME280;7533;51.278;12.588;2023-06-26T07:15:16;99916.41;;;27.05;62.30
14882;BME280;7533;51.278;12.588;2023-06-26T07:20:21;99916.81;;;27.10;62.23
14882;BME280;7533;51.278;12.588;2023-06-26T07:25:23;99913.66;;;27.15;62.30
14882;BME280;7533;51.278;12.588;2023-06-26T07:30:27;99914.22;;;27.19;62.17
14882;BME280;7533;51.278;12.588;2023-06-26T07:35:31;99910.88;;;27.25;62.28
14882;BME280;7533;51.278;12.588;2023-06-26T07:40:34;99908.56;;;27.30;61.97
14882;BME280;7533;51.278;12.588;2023-06-26T07:45:38;99902.34;;;27.37;61.94
14882;BME280;7533;51.278;12.588;2023-06-26T07:50:42;99904.44;;;27.43;61.85
14882;BME280;7533;51.278;12.588;2023-06-26T07:55:45;99901.28;;;27.48;61.78
14882;BME280;7533;51.278;12.588;2023-06-26T08:00:49;99900.66;;;27.54;61.73
14882;BME280;7533;51.278;12.588;2023-06-26T08:05:53;99904.78;;;27.58;61.57
14882;BME280;7533;51.278;12.588;2023-06-26T08:10:56;99888.53;;;27.66;61.34
14882;BME280;7533;51.278;12.588;2023-06-26T08:15:59;99888.31;;;27.78;61.16
14882;BME280;7533;51.278;12.588;2023-06-26T08:21:03;99895.00;;;27.83;61.10
14882;BME280;7533;51.278;12.588;2023-06-26T08:26:07;99882.09;;;27.85;60.97
14882;BME280;7533;51.278;12.588;2023-06-26T08:31:11;99885.22;;;27.90;61.00
14882;BME280;7533;51.278;12.588;2023-06-26T08:36:16;99882.00;;;27.95;61.23
14882;BME280;7533;51.278;12.588;2023-06-26T08:41:19;99878.97;;;27.98;61.53
14882;BME280;7533;51.278;12.588;2023-06-26T08:46:22;99885.41;;;27.97;61.66
14882;BME280;7533;51.278;12.588;2023-06-26T08:51:28;99883.16;;;27.92;62.24
14882;BME280;7533;51.278;12.588;2023-06-26T08:56:32;99881.84;;;27.97;62.25
14882;BME280;7533;51.278;12.588;2023-06-26T09:01:38;99878.41;;;27.94;62.30
14882;BME280;7533;51.278;12.588;2023-06-26T09:06:43;99874.91;;;28.02;62.12
14882;BME280;7533;51.278;12.588;2023-06-26T09:11:46;99873.91;;;28.03;62.01
14882;BME280;7533;51.278;12.588;2023-06-26T09:16:49;99869.84;;;28.07;62.10
14882;BME280;7533;51.278;12.588;2023-06-26T09:21:54;99871.00;;;28.05;61.99
14882;BME280;7533;51.278;12.588;2023-06-26T09:26:57;99872.88;;;28.04;61.58
14882;BME280;7533;51.278;12.588;2023-06-26T09:32:00;99862.59;;;28.16;60.34
14882;BME280;7533;51.278;12.588;2023-06-26T09:37:05;99864.16;;;28.18;59.91
14882;BME280;7533;51.278;12.588;2023-06-26T09:42:08;99855.28;;;28.16;59.58
14882;BME280;7533;51.278;12.588;2023-06-26T09:47:11;99854.63;;;28.23;59.60
14882;BME280;7533;51.278;12.588;2023-06-26T09:52:17;99852.88;;;28.39;59.13
14882;BME280;7533;51.278;12.588;2023-06-26T09:57:21;99847.31;;;28.49;59.07
14882;BME280;7533;51.278;12.588;2023-06-26T10:02:24;99834.63;;;28.58;58.81
14882;BME280;7533;51.278;12.588;2023-06-26T10:07:29;99825.25;;;28.60;59.06
14882;BME280;7533;51.278;12.588;2023-06-26T10:12:32;99822.56;;;28.68;58.57
14882;BME280;7533;51.278;12.588;2023-06-26T10:17:38;99823.09;;;28.72;58.98
14882;BME280;7533;51.278;12.588;2023-06-26T10:22:47;99816.47;;;28.75;59.12
14882;BME280;7533;51.278;12.588;2023-06-26T10:27:53;99813.25;;;28.79;59.15
14882;BME280;7533;51.278;12.588;2023-06-26T10:32:57;99813.75;;;28.83;59.11
14882;BME280;7533;51.278;12.588;2023-06-26T10:38:03;99805.25;;;28.86;60.06
14882;BME280;7533;51.278;12.588;2023-06-26T10:43:07;99797.59;;;28.89;59.75
14882;BME280;7533;51.278;12.588;2023-06-26T10:48:14;99796.28;;;28.93;59.87
14882;BME280;7533;51.278;12.588;2023-06-26T10:53:23;99798.69;;;28.96;60.26
14882;BME280;7533;51.278;12.588;2023-06-26T10:58:30;99796.38;;;28.84;60.82
14882;BME280;7533;51.278;12.588;2023-06-26T11:03:33;99789.25;;;28.83;60.77
14882;BME280;7533;51.278;12.588;2023-06-26T11:08:48;99780.09;;;29.00;59.47
14882;BME280;7533;51.278;12.588;2023-06-26T11:13:52;99784.03;;;29.06;59.07
14882;BME280;7533;51.278;12.588;2023-06-26T11:18:57;99774.50;;;29.10;59.20
14882;BME280;7533;51.278;12.588;2023-06-26T11:24:03;99771.09;;;29.16;59.22
14882;BME280;7533;51.278;12.588;2023-06-26T11:29:07;99765.34;;;29.19;60.11
14882;BME280;7533;51.278;12.588;2023-06-26T11:34:12;99759.34;;;29.15;60.49
14882;BME280;7533;51.278;12.588;2023-06-26T11:39:17;99749.66;;;29.13;60.18
14882;BME280;7533;51.278;12.588;2023-06-26T11:44:21;99747.59;;;29.15;60.01
14882;BME280;7533;51.278;12.588;2023-06-26T11:49:24;99747.59;;;29.15;60.00
14882;BME280;7533;51.278;12.588;2023-06-26T11:54:30;99740.47;;;29.14;59.42
14882;BME280;7533;51.278;12.588;2023-06-26T11:59:34;99746.06;;;29.12;59.30
14882;BME280;7533;51.278;12.588;2023-06-26T12:04:40;99738.22;;;29.17;59.64
14882;BME280;7533;51.278;12.588;2023-06-26T12:09:45;99745.56;;;29.25;59.10
14882;BME280;7533;51.278;12.588;2023-06-26T12:14:50;99729.72;;;29.29;58.30
14882;BME280;7533;51.278;12.588;2023-06-26T12:19:54;99726.97;;;29.29;58.00
14882;BME280;7533;51.278;12.588;2023-06-26T12:24:58;99723.06;;;29.39;58.41
14882;BME280;7533;51.278;12.588;2023-06-26T12:30:03;99715.56;;;29.41;57.79
14882;BME280;7533;51.278;12.588;2023-06-26T12:35:09;99714.38;;;29.44;57.72
14882;BME280;7533;51.278;12.588;2023-06-26T12:40:20;99706.84;;;29.46;57.83
14882;BME280;7533;51.278;12.588;2023-06-26T12:45:24;99706.34;;;29.50;58.07
14882;BME280;7533;51.278;12.588;2023-06-26T12:50:37;99702.09;;;29.56;57.92
14882;BME280;7533;51.278;12.588;2023-06-26T12:55:42;99691.72;;;29.60;58.25
14882;BME280;7533;51.278;12.588;2023-06-26T13:00:45;99682.16;;;29.64;57.79
14882;BME280;7533;51.278;12.588;2023-06-26T13:05:48;99677.03;;;29.69;58.25
14882;BME280;7533;51.278;12.588;2023-06-26T13:10:52;99676.72;;;29.56;58.79
14882;BME280;7533;51.278;12.588;2023-06-26T13:15:55;99671.22;;;29.72;58.42
14882;BME280;7533;51.278;12.588;2023-06-26T13:20:58;99668.47;;;29.80;58.61
14882;BME280;7533;51.278;12.588;2023-06-26T13:26:02;99650.38;;;29.79;58.99
14882;BME280;7533;51.278;12.588;2023-06-26T13:31:05;99647.34;;;29.74;59.12
14882;BME280;7533;51.278;12.588;2023-06-26T13:36:08;99642.38;;;29.77;59.51
14882;BME280;7533;51.278;12.588;2023-06-26T13:41:13;99631.81;;;29.83;59.46
14882;BME280;7533;51.278;12.588;2023-06-26T13:46:16;99619.31;;;29.88;59.13
14882;BME280;7533;51.278;12.588;2023-06-26T13:51:19;99615.38;;;29.91;59.53
14882;BME280;7533;51.278;12.588;2023-06-26T13:56:24;99615.88;;;29.94;59.20
14882;BME280;7533;51.278;12.588;2023-06-26T14:01:27;99607.03;;;29.92;59.45
14882;BME280;7533;51.278;12.588;2023-06-26T14:06:30;99600.03;;;29.90;59.32
14882;BME280;7533;51.278;12.588;2023-06-26T14:11:35;99604.00;;;29.87;59.45
14882;BME280;7533;51.278;12.588;2023-06-26T14:16:38;99606.03;;;29.85;59.46
14882;BME280;7533;51.278;12.588;2023-06-26T14:21:42;99621.72;;;29.83;59.99
14882;BME280;7533;51.278;12.588;2023-06-26T14:26:47;99653.09;;;29.87;59.92
14882;BME280;7533;51.278;12.588;2023-06-26T14:31:49;99646.28;;;29.91;59.52
14882;BME280;7533;51.278;12.588;2023-06-26T14:36:56;99671.50;;;29.93;59.58
14882;BME280;7533;51.278;12.588;2023-06-26T14:42:00;99680.34;;;29.95;60.03
14882;BME280;7533;51.278;12.588;2023-06-26T14:47:04;99675.72;;;29.96;60.11
14882;BME280;7533;51.278;12.588;2023-06-26T14:52:07;99674.88;;;29.95;60.02
14882;BME280;7533;51.278;12.588;2023-06-26T14:57:12;99690.19;;;30.04;59.87
14882;BME280;7533;51.278;12.588;2023-06-26T15:02:14;99690.69;;;30.16;59.67
14882;BME280;7533;51.278;12.588;2023-06-26T15:07:18;99719.81;;;30.32;59.61
14882;BME280;7533;51.278;12.588;2023-06-26T15:12:22;99709.47;;;30.50;59.31
14882;BME280;7533;51.278;12.588;2023-06-26T15:17:25;99713.66;;;30.61;59.00
14882;BME280;7533;51.278;12.588;2023-06-26T15:22:28;99733.06;;;30.74;58.53
14882;BME280;7533;51.278;12.588;2023-06-26T15:27:33;99728.41;;;30.83;58.67
14882;BME280;7533;51.278;12.588;2023-06-26T15:32:36;99737.56;;;30.90;58.47
14882;BME280;7533;51.278;12.588;2023-06-26T15:37:39;99748.31;;;30.92;58.16
14882;BME280;7533;51.278;12.588;2023-06-26T15:42:46;99773.78;;;30.92;58.26
14882;BME280;7533;51.278;12.588;2023-06-26T15:47:50;99773.41;;;30.95;58.53
14882;BME280;7533;51.278;12.588;2023-06-26T15:52:53;99798.50;;;30.99;58.11
14882;BME280;7533;51.278;12.588;2023-06-26T15:57:57;99801.72;;;31.02;58.12
14882;BME280;7533;51.278;12.588;2023-06-26T16:03:01;99806.84;;;31.05;58.18
14882;BME280;7533;51.278;12.588;2023-06-26T16:08:05;99812.81;;;31.09;58.40
14882;BME280;7533;51.278;12.588;2023-06-26T16:13:09;99824.22;;;31.13;58.85
14882;BME280;7533;51.278;12.588;2023-06-26T16:18:12;99834.09;;;31.14;59.13
14882;BME280;7533;51.278;12.588;2023-06-26T16:23:16;99831.16;;;31.23;59.52
14882;BME280;7533;51.278;12.588;2023-06-26T16:28:25;99818.81;;;31.04;59.86
14882;BME280;7533;51.278;12.588;2023-06-26T16:33:28;99816.31;;;31.26;59.69
14882;BME280;7533;51.278;12.588;2023-06-26T16:38:31;99817.09;;;31.34;59.13
14882;BME280;7533;51.278;12.588;2023-06-26T16:43:35;99821.81;;;31.41;58.60
14882;BME280;7533;51.278;12.588;2023-06-26T16:48:58;99811.53;;;31.43;57.98
14882;BME280;7533;51.278;12.588;2023-06-26T16:54:01;99830.81;;;31.49;57.67
14882;BME280;7533;51.278;12.588;2023-06-26T16:59:05;99841.19;;;31.54;57.65
14882;BME280;7533;51.278;12.588;2023-06-26T17:04:08;99844.81;;;31.54;57.41
14882;BME280;7533;51.278;12.588;2023-06-26T17:09:11;99840.66;;;31.58;57.03
14882;BME280;7533;51.278;12.588;2023-06-26T17:14:15;99836.81;;;31.68;56.86
14882;BME280;7533;51.278;12.588;2023-06-26T17:19:18;99837.41;;;31.78;56.51
14882;BME280;7533;51.278;12.588;2023-06-26T17:24:21;99846.97;;;31.82;56.50
14882;BME280;7533;51.278;12.588;2023-06-26T17:29:25;99848.31;;;31.86;56.40
14882;BME280;7533;51.278;12.588;2023-06-26T17:34:28;99849.66;;;31.90;56.15
14882;BME280;7533;51.278;12.588;2023-06-26T17:39:31;99872.69;;;31.96;55.91
14882;BME280;7533;51.278;12.588;2023-06-26T17:44:36;99872.69;;;31.96;56.04
14882;BME280;7533;51.278;12.588;2023-06-26T17:49:38;99888.06;;;31.97;56.11
14882;BME280;7533;51.278;12.588;2023-06-26T17:54:41;99892.22;;;31.93;55.90
14882;BME280;7533;51.278;12.588;2023-06-26T17:59:46;99898.38;;;31.95;55.91
14882;BME280;7533;51.278;12.588;2023-06-26T18:04:49;99897.53;;;31.94;55.93
14882;BME280;7533;51.278;12.588;2023-06-26T18:09:51;99901.22;;;32.01;55.76
14882;BME280;7533;51.278;12.588;2023-06-26T18:14:56;99909.03;;;32.04;55.45
14882;BME280;7533;51.278;12.588;2023-06-26T18:20:00;99907.53;;;32.02;55.60
14882;BME280;7533;51.278;12.588;2023-06-26T18:25:05;99915.56;;;32.03;55.43
14882;BME280;7533;51.278;12.588;2023-06-26T18:30:11;99913.03;;;31.48;52.84
14882;BME280;7533;51.278;12.588;2023-06-26T18:35:16;99913.72;;;31.27;52.09
14882;BME280;7533;51.278;12.588;2023-06-26T18:40:20;99925.03;;;31.07;52.36
14882;BME280;7533;51.278;12.588;2023-06-26T18:45:25;99925.66;;;30.87;53.00
14882;BME280;7533;51.278;12.588;2023-06-26T18:50:27;99926.19;;;30.74;52.42
14882;BME280;7533;51.278;12.588;2023-06-26T18:55:30;99930.34;;;30.70;52.53
14882;BME280;7533;51.278;12.588;2023-06-26T19:00:36;99932.53;;;30.58;52.78
14882;BME280;7533;51.278;12.588;2023-06-26T19:05:40;99929.53;;;30.12;53.59
14882;BME280;7533;51.278;12.588;2023-06-26T19:10:43;99945.78;;;30.14;53.17
14882;BME280;7533;51.278;12.588;2023-06-26T19:15:49;99951.19;;;30.06;52.86
14882;BME280;7533;51.278;12.588;2023-06-26T19:20:52;99955.97;;;29.87;53.22
14882;BME280;7533;51.278;12.588;2023-06-26T19:25:55;99954.94;;;29.80;53.47
14882;BME280;7533;51.278;12.588;2023-06-26T19:31:00;99964.97;;;29.80;53.48
14882;BME280;7533;51.278;12.588;2023-06-26T19:36:04;99967.69;;;29.80;52.86
14882;BME280;7533;51.278;12.588;2023-06-26T19:41:06;99981.50;;;29.78;53.20
14882;BME280;7533;51.278;12.588;2023-06-26T19:46:11;99989.38;;;29.31;54.36
14882;BME280;7533;51.278;12.588;2023-06-26T19:51:14;100004.34;;;28.66;55.50
14882;BME280;7533;51.278;12.588;2023-06-26T19:56:17;100008.22;;;28.38;56.61
14882;BME280;7533;51.278;12.588;2023-06-26T20:01:22;100013.22;;;28.68;56.19
14882;BME280;7533;51.278;12.588;2023-06-26T20:06:29;100011.03;;;28.46;56.50
14882;BME280;7533;51.278;12.588;2023-06-26T20:11:32;100000.56;;;28.85;55.74
14882;BME280;7533;51.278;12.588;2023-06-26T20:16:36;100012.63;;;28.57;56.43
14882;BME280;7533;51.278;12.588;2023-06-26T20:21:39;100019.41;;;28.53;56.64
14882;BME280;7533;51.278;12.588;2023-06-26T20:26:42;100022.03;;;28.62;56.24
14882;BME280;7533;51.278;12.588;2023-06-26T20:31:47;100020.09;;;28.55;55.96
14882;BME280;7533;51.278;12.588;2023-06-26T20:36:50;100021.56;;;28.31;56.16
14882;BME280;7533;51.278;12.588;2023-06-26T20:41:54;100018.09;;;28.21;56.11
14882;BME280;7533;51.278;12.588;2023-06-26T20:46:59;100032.16;;;28.16;55.61
14882;BME280;7533;51.278;12.588;2023-06-26T20:52:11;100036.75;;;28.16;55.72
14882;BME280;7533;51.278;12.588;2023-06-26T20:57:14;100037.75;;;28.15;55.71
14882;BME280;7533;51.278;12.588;2023-06-26T21:02:20;100032.94;;;28.09;55.64
14882;BME280;7533;51.278;12.588;2023-06-26T21:07:23;100040.56;;;28.05;55.64
14882;BME280;7533;51.278;12.588;2023-06-26T21:12:27;100046.25;;;28.12;55.59
14882;BME280;7533;51.278;12.588;2023-06-26T21:17:31;100046.38;;;28.10;53.62
14882;BME280;7533;51.278;12.588;2023-06-26T21:22:34;100048.59;;;28.07;53.66
14882;BME280;7533;51.278;12.588;2023-06-26T21:27:37;100055.91;;;28.06;53.04
14882;BME280;7533;51.278;12.588;2023-06-26T21:32:41;100064.34;;;28.03;53.04
14882;BME280;7533;51.278;12.588;2023-06-26T21:37:44;100059.38;;;28.16;52.88
14882;BME280;7533;51.278;12.588;2023-06-26T21:42:47;100064.88;;;27.89;53.51
14882;BME280;7533;51.278;12.588;2023-06-26T21:47:51;100074.19;;;27.86;53.60
14882;BME280;7533;51.278;12.588;2023-06-26T21:52:54;100077.53;;;27.80;54.13
14882;BME280;7533;51.278;12.588;2023-06-26T21:57:57;100073.84;;;27.72;54.38
14882;BME280;7533;51.278;12.588;2023-06-26T22:03:01;100077.72;;;27.97;54.60
14882;BME280;7533;51.278;12.588;2023-06-26T22:08:04;100082.59;;;28.11;54.03
14882;BME280;7533;51.278;12.588;2023-06-26T22:13:09;100088.00;;;28.20;54.68
14882;BME280;7533;51.278;12.588;2023-06-26T22:18:13;100089.28;;;27.81;55.15
14882;BME280;7533;51.278;12.588;2023-06-26T22:23:16;100094.16;;;28.84;53.96
14882;BME280;7533;51.278;12.588;2023-06-26T22:28:19;100087.38;;;28.09;54.10
14882;BME280;7533;51.278;12.588;2023-06-26T22:33:23;100105.00;;;28.05;54.99
14882;BME280;7533;51.278;12.588;2023-06-26T22:38:26;100108.91;;;28.56;54.36
14882;BME280;7533;51.278;12.588;2023-06-26T22:43:29;100115.66;;;27.61;55.71
14882;BME280;7533;51.278;12.588;2023-06-26T22:48:33;100116.81;;;27.68;56.12
14882;BME280;7533;51.278;12.588;2023-06-26T22:53:38;100117.03;;;27.84;56.01
14882;BME280;7533;51.278;12.588;2023-06-26T22:58:42;100115.16;;;27.85;54.71
14882;BME280;7533;51.278;12.588;2023-06-26T23:03:46;100118.09;;;27.74;55.13
14882;BME280;7533;51.278;12.588;2023-06-26T23:08:49;100113.66;;;27.73;55.19
14882;BME280;7533;51.278;12.588;2023-06-26T23:13:52;100120.03;;;27.81;55.02
14882;BME280;7533;51.278;12.588;2023-06-26T23:18:56;100127.47;;;27.52;55.47
14882;BME280;7533;51.278;12.588;2023-06-26T23:23:59;100133.88;;;27.04;56.93
14882;BME280;7533;51.278;12.588;2023-06-26T23:29:02;100135.34;;;26.88;58.16
14882;BME280;7533;51.278;12.588;2023-06-26T23:34:07;100147.50;;;26.84;57.77
14882;BME280;7533;51.278;12.588;2023-06-26T23:39:10;100144.81;;;26.55;58.12
14882;BME280;7533;51.278;12.588;2023-06-26T23:44:12;100147.75;;;26.81;56.94
14882;BME280;7533;51.278;12.588;2023-06-26T23:49:17;100149.06;;;26.48;57.10
14882;BME280;7533;51.278;12.588;2023-06-26T23:54:19;100156.00;;;26.31;57.21
14882;BME280;7533;51.278;12.588;2023-06-26T23:59:22;100161.06;;;26.46;56.47
